Walhain-Saint-Paul, Belgium
Current Conditions -  °F | °C
As of 1:25 AM on Thursday 23 Oct 2014 (Local Time) from EBBE Reporting Station
Overcast Overcast  
Wind Chill: 45°   Ceiling: 5000
Heat Index: 48°   Visibility: 6mi
Dew Point: 43°   Wind: 8mph
Humidity: 82%   Direction: 240°WSW
Pressure: 30.24"   Gusts: NA
Location:  50.63°N, 4.7°E
Report Text: EBBE 222325Z AUTO 24007KT 9999 OVC050/// 09/06 Q1024 BLU
Loading
Personal Weather Stations






























Interactive Weather Map
Tropical Storm Tracking
New forecast layout! Learn more

10-Day Weather Forecast

Advertisements
Track Severe Weather on mobile